createdAt,value
2023-03-17T00:00:29.453Z,4.03
2023-03-17T00:01:21.720Z,3.78
2023-03-17T00:02:13.286Z,3.80
2023-03-17T00:03:06.728Z,4.07
2023-03-17T00:03:58.719Z,3.75
2023-03-17T00:04:50.311Z,3.93
2023-03-17T00:05:42.638Z,3.90
2023-03-17T00:06:35.060Z,3.76
2023-03-17T00:07:26.872Z,3.57
2023-03-17T00:08:25.845Z,3.80
2023-03-17T00:09:19.063Z,3.82
2023-03-17T00:10:17.355Z,3.81
2023-03-17T00:11:17.567Z,3.88
2023-03-17T00:12:12.927Z,4.02
2023-03-17T00:13:04.705Z,3.95
2023-03-17T00:13:56.599Z,4.01
2023-03-17T00:14:48.757Z,3.57
2023-03-17T00:15:40.356Z,3.51
2023-03-17T00:16:38.807Z,3.89
2023-03-17T00:17:31.124Z,3.89
2023-03-17T00:18:23.733Z,4.02
2023-03-17T00:19:33.230Z,4.19
2023-03-17T00:20:31.151Z,3.58
2023-03-17T00:21:34.219Z,4.08
2023-03-17T00:22:26.426Z,3.89
2023-03-17T00:23:21.935Z,4.10
2023-03-17T00:24:15.184Z,3.58
2023-03-17T00:25:29.974Z,3.72
2023-03-17T00:26:23.398Z,4.08
2023-03-17T00:27:15.256Z,3.81
2023-03-17T00:28:15.345Z,3.52
2023-03-17T00:29:08.680Z,4.27
2023-03-17T00:30:00.184Z,3.40
2023-03-17T00:30:56.416Z,3.81
2023-03-17T00:31:49.402Z,3.87
2023-03-17T00:32:41.260Z,3.99
2023-03-17T00:33:37.050Z,3.59
2023-03-17T00:34:28.662Z,3.44
2023-03-17T00:35:23.708Z,3.75
2023-03-17T00:36:19.931Z,3.83
2023-03-17T00:37:12.763Z,4.16
2023-03-17T00:38:05.161Z,3.64
2023-03-17T00:38:58.343Z,3.69
2023-03-17T00:39:50.070Z,3.86
2023-03-17T00:41:36.135Z,3.79
2023-03-17T00:42:28.133Z,3.92
2023-03-17T00:43:19.763Z,3.81
2023-03-17T00:44:11.967Z,3.62
2023-03-17T00:45:03.758Z,3.33
2023-03-17T00:45:55.658Z,3.71
2023-03-17T00:46:49.060Z,3.93
2023-03-17T00:47:40.741Z,3.75
2023-03-17T00:48:32.396Z,3.51
2023-03-17T00:49:26.280Z,3.85
2023-03-17T00:50:22.295Z,3.61
2023-03-17T00:51:16.399Z,3.45
2023-03-17T00:52:08.688Z,3.74
2023-03-17T00:53:01.320Z,4.26
2023-03-17T00:53:52.888Z,3.83
2023-03-17T00:54:45.314Z,3.71
2023-03-17T00:55:37.216Z,3.81
2023-03-17T00:56:28.739Z,3.66
2023-03-17T00:57:20.231Z,3.82
2023-03-17T00:58:29.003Z,3.74
2023-03-17T00:59:27.553Z,3.68
2023-03-17T01:00:22.934Z,3.90
2023-03-17T01:01:14.960Z,4.09
2023-03-17T01:02:07.318Z,4.11
2023-03-17T01:02:59.237Z,3.85
2023-03-17T01:03:52.741Z,3.61
2023-03-17T01:04:49.990Z,3.92
2023-03-17T01:05:44.565Z,3.79
2023-03-17T01:06:37.883Z,3.79
2023-03-17T01:07:30.375Z,4.14
2023-03-17T01:08:23.614Z,3.94
2023-03-17T01:09:18.460Z,3.70
2023-03-17T01:10:21.346Z,3.84
2023-03-17T01:11:19.133Z,3.96
2023-03-17T01:12:14.029Z,4.18
2023-03-17T01:13:06.648Z,3.69
2023-03-17T01:13:58.990Z,3.62
2023-03-17T01:14:50.562Z,3.61
2023-03-17T01:15:45.813Z,3.86
2023-03-17T01:16:37.555Z,3.84
2023-03-17T01:17:29.191Z,3.34
2023-03-17T01:18:22.662Z,3.71
2023-03-17T01:19:14.783Z,3.76
2023-03-17T01:20:11.233Z,3.88
2023-03-17T01:21:03.210Z,3.62
2023-03-17T01:21:55.186Z,3.85
2023-03-17T01:22:47.932Z,3.77
2023-03-17T01:23:39.523Z,3.89
2023-03-17T01:24:31.762Z,3.89
2023-03-17T01:25:23.570Z,3.87
2023-03-17T01:26:15.271Z,3.66
2023-03-17T01:27:07.359Z,3.72
2023-03-17T01:28:00.098Z,3.77
2023-03-17T01:28:51.596Z,3.67
2023-03-17T01:29:43.112Z,3.55
2023-03-17T01:30:38.384Z,3.99
2023-03-17T01:31:30.691Z,3.84
2023-03-17T01:32:22.789Z,4.16
2023-03-17T01:33:15.966Z,3.78
2023-03-17T01:34:07.552Z,3.48
2023-03-17T01:34:59.173Z,3.33
2023-03-17T01:35:51.741Z,3.67
2023-03-17T01:36:43.584Z,3.73
2023-03-17T01:37:35.082Z,3.73
2023-03-17T01:38:26.740Z,3.82
2023-03-17T01:39:18.257Z,3.84
2023-03-17T01:40:17.206Z,3.58
2023-03-17T01:41:08.889Z,3.78
2023-03-17T01:42:01.461Z,3.76
2023-03-17T01:43:10.795Z,3.79
2023-03-17T01:44:02.548Z,3.59
2023-03-17T01:44:58.039Z,3.36
2023-03-17T01:46:14.677Z,3.77
2023-03-17T01:47:07.089Z,3.83
2023-03-17T01:47:59.085Z,3.77
2023-03-17T01:48:57.106Z,3.97
2023-03-17T01:49:49.233Z,3.75
2023-03-17T01:50:42.430Z,3.76
2023-03-17T01:51:44.544Z,3.47
2023-03-17T01:52:39.614Z,3.63
2023-03-17T01:53:32.348Z,3.65
2023-03-17T01:54:34.638Z,3.76
2023-03-17T01:55:26.678Z,4.03
2023-03-17T01:56:19.417Z,3.59
2023-03-17T01:57:19.978Z,3.71
2023-03-17T01:58:13.643Z,4.12
2023-03-17T01:59:10.532Z,3.67
2023-03-17T02:00:09.002Z,3.62
2023-03-17T02:01:07.971Z,3.89
2023-03-17T02:02:08.658Z,3.66
2023-03-17T02:03:00.436Z,3.69
2023-03-17T02:03:53.841Z,4.10
2023-03-17T02:04:45.688Z,3.71
2023-03-17T02:05:39.768Z,3.73
2023-03-17T02:06:32.422Z,3.84
2023-03-17T02:07:26.677Z,3.92
2023-03-17T02:08:18.703Z,3.96
2023-03-17T02:09:10.469Z,3.76
2023-03-17T02:10:04.344Z,3.63
2023-03-17T02:10:57.258Z,3.89
2023-03-17T02:11:50.595Z,3.62
2023-03-17T02:12:45.592Z,4.07
2023-03-17T02:13:38.409Z,4.11
2023-03-17T02:14:30.177Z,3.57
2023-03-17T02:15:22.614Z,3.88
2023-03-17T02:16:17.494Z,3.90
2023-03-17T02:17:12.809Z,3.46
2023-03-17T02:18:09.467Z,3.85
2023-03-17T02:19:02.065Z,3.87
2023-03-17T02:19:55.533Z,3.82
2023-03-17T02:20:47.850Z,3.80
2023-03-17T02:21:45.551Z,3.98
2023-03-17T02:22:38.207Z,3.57
2023-03-17T02:23:30.532Z,3.94
2023-03-17T02:24:41.414Z,4.02
2023-03-17T02:25:36.194Z,3.95
2023-03-17T02:26:33.346Z,3.63
2023-03-17T02:27:35.423Z,3.72
2023-03-17T02:28:31.012Z,3.76
2023-03-17T02:29:23.485Z,3.98
2023-03-17T02:30:19.058Z,3.92
2023-03-17T02:31:11.016Z,4.02
2023-03-17T02:32:02.795Z,3.99
2023-03-17T02:32:54.731Z,3.83
2023-03-17T02:33:46.797Z,3.88
2023-03-17T02:34:39.085Z,3.74
2023-03-17T02:35:31.326Z,3.85
2023-03-17T02:36:23.686Z,3.60
2023-03-17T02:37:17.149Z,3.80
2023-03-17T02:38:08.721Z,3.89
2023-03-17T02:39:01.056Z,4.21
2023-03-17T02:39:55.031Z,4.06
2023-03-17T02:40:46.663Z,4.03
2023-03-17T02:41:38.312Z,4.01
2023-03-17T02:42:29.833Z,4.27
2023-03-17T02:43:23.570Z,4.09
2023-03-17T02:44:15.138Z,3.84
2023-03-17T02:45:09.201Z,4.13
2023-03-17T02:46:01.203Z,4.21
2023-03-17T02:46:52.828Z,3.98
2023-03-17T02:47:44.362Z,4.10
2023-03-17T02:48:36.695Z,4.09
2023-03-17T02:49:30.544Z,3.95
2023-03-17T02:50:25.534Z,4.12
2023-03-17T02:51:19.589Z,3.90
2023-03-17T02:52:11.986Z,4.28
2023-03-17T02:53:03.531Z,4.25
2023-03-17T02:53:55.136Z,4.34
2023-03-17T02:54:46.601Z,3.75
2023-03-17T02:55:38.437Z,3.98
2023-03-17T02:56:30.130Z,4.09
2023-03-17T02:57:21.986Z,4.10
2023-03-17T02:58:13.495Z,4.01
2023-03-17T02:59:05.568Z,3.86
2023-03-17T02:59:57.106Z,3.82
2023-03-17T03:00:49.696Z,3.71
2023-03-17T03:01:41.280Z,3.67
2023-03-17T03:02:33.265Z,4.05
2023-03-17T03:03:24.857Z,3.91
2023-03-17T03:04:17.408Z,3.81
2023-03-17T03:05:09.560Z,3.89
2023-03-17T03:06:03.140Z,3.77
2023-03-17T03:06:56.878Z,3.87
2023-03-17T03:07:48.345Z,4.20
2023-03-17T03:08:39.934Z,4.21
2023-03-17T03:09:31.853Z,4.15
2023-03-17T03:10:23.452Z,4.24
2023-03-17T03:11:18.367Z,4.10
2023-03-17T03:12:11.085Z,3.99
2023-03-17T03:13:03.048Z,3.77
2023-03-17T03:13:54.657Z,3.46
2023-03-17T03:14:46.150Z,3.79
2023-03-17T03:15:38.153Z,3.97
2023-03-17T03:16:29.783Z,3.66
2023-03-17T03:17:21.919Z,3.88
2023-03-17T03:18:13.661Z,3.85
2023-03-17T03:19:05.974Z,4.00
2023-03-17T03:19:57.867Z,4.09
2023-03-17T03:20:49.864Z,4.02
2023-03-17T03:21:41.491Z,4.07
2023-03-17T03:22:32.982Z,4.03
2023-03-17T03:23:24.459Z,3.84
2023-03-17T03:24:16.003Z,3.74
2023-03-17T03:25:08.593Z,3.90
2023-03-17T03:26:00.345Z,3.89
2023-03-17T03:26:52.105Z,4.05
2023-03-17T03:27:43.743Z,4.06
2023-03-17T03:28:35.314Z,4.27
2023-03-17T03:29:27.208Z,3.80
2023-03-17T03:30:19.194Z,3.89
2023-03-17T03:31:11.717Z,4.25
2023-03-17T03:32:03.423Z,3.91
2023-03-17T03:32:55.116Z,4.22
2023-03-17T03:33:46.676Z,3.89
2023-03-17T03:34:38.321Z,4.08
2023-03-17T03:35:30.242Z,3.99
2023-03-17T03:36:22.465Z,3.92
2023-03-17T03:37:13.949Z,4.08
2023-03-17T03:38:06.948Z,4.36
2023-03-17T03:38:58.642Z,4.16
2023-03-17T03:39:50.122Z,3.88
2023-03-17T03:40:42.235Z,4.03
2023-03-17T03:41:33.730Z,4.16
2023-03-17T03:42:25.476Z,4.34
2023-03-17T03:43:23.485Z,4.57
2023-03-17T03:44:15.432Z,4.35
2023-03-17T03:45:07.694Z,3.87
2023-03-17T03:45:59.248Z,4.43
2023-03-17T03:46:51.733Z,4.48
2023-03-17T03:47:43.436Z,4.33
2023-03-17T03:48:35.042Z,4.43
2023-03-17T03:49:26.524Z,4.52
2023-03-17T03:50:18.541Z,4.45
2023-03-17T03:51:10.416Z,4.09
2023-03-17T03:52:01.986Z,4.05
2023-03-17T03:52:53.483Z,4.05
2023-03-17T03:53:45.143Z,4.29
2023-03-17T03:54:37.341Z,4.88
2023-03-17T03:55:28.996Z,4.38
2023-03-17T03:56:20.737Z,4.11
2023-03-17T03:57:12.351Z,4.40
2023-03-17T03:58:03.945Z,4.45
2023-03-17T03:58:56.388Z,4.77
2023-03-17T03:59:47.876Z,4.34
2023-03-17T04:00:39.660Z,4.39
2023-03-17T04:01:31.381Z,4.41
2023-03-17T04:02:23.387Z,4.17
2023-03-17T04:03:16.501Z,4.64
2023-03-17T04:04:08.008Z,4.43
2023-03-17T04:04:59.935Z,4.14
2023-03-17T04:05:51.467Z,4.36
2023-03-17T04:06:44.354Z,3.90
2023-03-17T04:07:37.095Z,4.28
2023-03-17T04:08:28.669Z,4.19
2023-03-17T04:09:20.205Z,4.40
2023-03-17T04:10:13.280Z,4.71
2023-03-17T04:11:04.935Z,4.40
2023-03-17T04:11:56.422Z,4.47
2023-03-17T04:12:47.948Z,4.18
2023-03-17T04:13:39.484Z,4.39
2023-03-17T04:14:30.997Z,4.72
2023-03-17T04:15:23.033Z,4.43
2023-03-17T04:16:14.648Z,4.33
2023-03-17T04:17:06.129Z,4.36
2023-03-17T04:17:57.692Z,4.30
2023-03-17T04:18:49.370Z,4.17
2023-03-17T04:19:41.329Z,4.49
2023-03-17T04:20:33.294Z,4.05
2023-03-17T04:21:24.901Z,4.13
2023-03-17T04:22:16.399Z,4.43
2023-03-17T04:23:07.925Z,4.59
2023-03-17T04:23:59.430Z,4.45
2023-03-17T04:24:50.980Z,4.37
2023-03-17T04:25:42.711Z,4.21
2023-03-17T04:26:34.458Z,4.56
2023-03-17T04:27:26.980Z,4.03
2023-03-17T04:28:19.382Z,4.32
2023-03-17T04:29:15.505Z,4.52
2023-03-17T04:30:10.718Z,4.31
2023-03-17T04:31:02.323Z,4.32
2023-03-17T04:31:53.929Z,4.77
2023-03-17T04:32:46.343Z,4.43
2023-03-17T04:33:38.291Z,4.66
2023-03-17T04:34:29.855Z,4.28
2023-03-17T04:35:25.255Z,4.44
2023-03-17T04:36:22.155Z,4.41
2023-03-17T04:37:13.906Z,4.60
2023-03-17T04:38:05.400Z,4.26
2023-03-17T04:38:56.874Z,4.39
2023-03-17T04:39:48.369Z,4.12
2023-03-17T04:40:39.868Z,4.02
2023-03-17T04:41:31.397Z,4.20
2023-03-17T04:42:22.928Z,4.37
2023-03-17T04:43:14.421Z,4.33
2023-03-17T04:44:06.291Z,4.14
2023-03-17T04:44:57.731Z,4.10
2023-03-17T04:45:49.291Z,4.24
2023-03-17T04:46:40.887Z,4.07
2023-03-17T04:47:32.821Z,4.23
2023-03-17T04:48:24.330Z,4.53
2023-03-17T04:49:16.290Z,4.00
2023-03-17T04:50:09.536Z,4.14
2023-03-17T04:51:01.088Z,4.06
2023-03-17T04:51:52.615Z,4.35
2023-03-17T04:52:44.239Z,4.78
2023-03-17T04:53:35.827Z,4.80
2023-03-17T04:54:27.335Z,4.53
2023-03-17T04:55:18.991Z,4.78
2023-03-17T04:56:11.811Z,5.13
2023-03-17T04:57:03.722Z,5.99
2023-03-17T04:57:55.285Z,5.02
2023-03-17T04:58:46.752Z,4.28
2023-03-17T04:59:38.351Z,4.61
2023-03-17T05:00:30.107Z,4.30
2023-03-17T05:01:22.075Z,4.41
2023-03-17T05:02:13.870Z,4.24
2023-03-17T05:03:19.988Z,4.59
2023-03-17T05:04:30.866Z,4.22
2023-03-17T05:05:23.296Z,4.78
2023-03-17T05:06:15.188Z,4.70
2023-03-17T05:07:06.679Z,4.20
2023-03-17T05:07:58.566Z,4.66
2023-03-17T05:08:50.163Z,4.85
2023-03-17T05:09:43.215Z,5.11
2023-03-17T05:10:34.696Z,4.77
2023-03-17T05:11:26.186Z,4.72
2023-03-17T05:12:17.672Z,4.66
2023-03-17T05:13:09.178Z,4.77
2023-03-17T05:14:00.916Z,5.13
2023-03-17T05:14:52.468Z,4.48
2023-03-17T05:15:48.043Z,4.40
2023-03-17T05:16:39.688Z,4.66
2023-03-17T05:17:31.483Z,4.77
2023-03-17T05:18:26.211Z,4.87
2023-03-17T05:19:19.037Z,4.59
2023-03-17T05:20:11.107Z,4.28
2023-03-17T05:21:03.043Z,4.34
2023-03-17T05:21:54.819Z,4.75
2023-03-17T05:22:46.542Z,4.70
2023-03-17T05:23:38.777Z,4.40
2023-03-17T05:24:30.517Z,4.56
2023-03-17T05:25:22.561Z,4.32
2023-03-17T05:26:14.121Z,4.32
2023-03-17T05:27:05.989Z,4.26
2023-03-17T05:27:58.644Z,4.32
2023-03-17T05:28:50.196Z,4.57
2023-03-17T05:29:42.300Z,4.22
2023-03-17T05:30:36.539Z,4.04
2023-03-17T05:31:28.229Z,4.51
2023-03-17T05:32:19.814Z,4.16
2023-03-17T05:33:12.051Z,4.50
2023-03-17T05:34:04.506Z,4.28
2023-03-17T05:34:56.020Z,4.54
2023-03-17T05:35:47.644Z,4.66
2023-03-17T05:36:39.389Z,4.42
2023-03-17T05:37:31.062Z,4.48
2023-03-17T05:38:22.650Z,4.67
2023-03-17T05:39:14.711Z,4.15
2023-03-17T05:40:06.533Z,4.07
2023-03-17T05:40:58.082Z,4.63
2023-03-17T05:41:50.379Z,4.82
2023-03-17T05:42:42.542Z,5.13
2023-03-17T05:43:34.056Z,4.58
2023-03-17T05:44:25.617Z,4.42
2023-03-17T05:45:17.498Z,4.40
2023-03-17T05:46:09.232Z,4.37
2023-03-17T05:47:01.859Z,4.25
2023-03-17T05:47:53.365Z,4.32
2023-03-17T05:48:44.868Z,4.70
2023-03-17T05:49:36.851Z,4.26
2023-03-17T05:50:28.411Z,4.21
2023-03-17T05:51:20.388Z,4.57
2023-03-17T05:52:12.030Z,4.34
2023-03-17T05:53:03.815Z,4.48
2023-03-17T05:53:55.925Z,4.67
2023-03-17T05:54:48.950Z,4.45
2023-03-17T05:55:40.601Z,4.57
2023-03-17T05:56:33.702Z,4.47
2023-03-17T05:57:25.456Z,4.40
2023-03-17T05:58:17.055Z,4.36
2023-03-17T05:59:09.623Z,4.48
2023-03-17T06:00:01.212Z,4.37
2023-03-17T06:00:52.855Z,4.45
2023-03-17T06:01:45.326Z,4.46
2023-03-17T06:02:36.962Z,4.33
2023-03-17T06:03:28.501Z,4.48
2023-03-17T06:04:20.262Z,4.22
2023-03-17T06:05:12.248Z,4.43
2023-03-17T06:06:04.631Z,4.40
2023-03-17T06:06:56.112Z,4.59
2023-03-17T06:07:54.826Z,4.43
2023-03-17T06:08:47.812Z,4.38
2023-03-17T06:09:40.122Z,4.33
2023-03-17T06:10:32.221Z,4.59
2023-03-17T06:11:24.104Z,4.40
2023-03-17T06:12:16.074Z,4.10
2023-03-17T06:13:07.650Z,4.24
2023-03-17T06:13:59.211Z,4.69
2023-03-17T06:14:50.856Z,4.38
2023-03-17T06:15:43.046Z,4.22
2023-03-17T06:16:34.673Z,4.29
2023-03-17T06:17:26.387Z,4.49
2023-03-17T06:18:19.733Z,4.75
2023-03-17T06:19:11.523Z,5.01
2023-03-17T06:20:05.335Z,4.84
2023-03-17T06:20:57.188Z,4.74
2023-03-17T06:21:48.835Z,4.43
2023-03-17T06:22:51.692Z,4.38
2023-03-17T06:23:52.429Z,4.49
2023-03-17T06:24:43.961Z,4.33
2023-03-17T06:25:35.737Z,4.44
2023-03-17T06:26:27.387Z,4.44
2023-03-17T06:27:19.508Z,4.66
2023-03-17T06:28:11.628Z,4.18
2023-03-17T06:29:09.731Z,4.11
2023-03-17T06:30:01.386Z,4.46
2023-03-17T06:30:53.016Z,4.52
2023-03-17T06:31:50.238Z,4.43
2023-03-17T06:32:41.897Z,4.25
2023-03-17T06:33:34.450Z,4.41
2023-03-17T06:34:26.331Z,4.20
2023-03-17T06:35:18.080Z,4.50
2023-03-17T06:36:10.202Z,4.70
2023-03-17T06:37:01.747Z,4.89
2023-03-17T06:37:53.997Z,4.07
2023-03-17T06:38:46.137Z,4.78
2023-03-17T06:39:37.774Z,4.49
2023-03-17T06:40:30.192Z,4.32
2023-03-17T06:41:22.265Z,4.64
2023-03-17T06:42:14.293Z,4.46
2023-03-17T06:43:05.838Z,4.02
2023-03-17T06:43:57.357Z,4.25
2023-03-17T06:44:52.185Z,4.13
2023-03-17T06:45:43.669Z,4.21
2023-03-17T06:46:36.565Z,4.66
2023-03-17T06:47:28.216Z,4.56
2023-03-17T06:48:19.893Z,4.48
2023-03-17T06:49:13.534Z,4.49
2023-03-17T06:50:09.953Z,4.40
2023-03-17T06:51:02.610Z,4.28
2023-03-17T06:51:54.269Z,4.25
2023-03-17T06:52:46.995Z,4.19
2023-03-17T06:53:38.485Z,4.49
2023-03-17T06:54:30.195Z,4.10
2023-03-17T06:55:21.995Z,3.92
2023-03-17T06:56:28.793Z,4.46
2023-03-17T06:57:21.607Z,4.25
2023-03-17T06:58:13.374Z,4.16
2023-03-17T06:59:08.397Z,3.93
2023-03-17T07:00:03.264Z,4.67
2023-03-17T07:01:01.284Z,4.37
2023-03-17T07:01:54.141Z,4.14
2023-03-17T07:02:46.104Z,4.48
2023-03-17T07:03:38.605Z,4.17
2023-03-17T07:04:31.175Z,3.98
2023-03-17T07:05:23.094Z,4.17
2023-03-17T07:06:14.578Z,3.99
2023-03-17T07:07:06.536Z,4.46
2023-03-17T07:07:58.039Z,4.49
2023-03-17T07:08:50.840Z,4.05
2023-03-17T07:09:42.380Z,4.72
2023-03-17T07:10:34.728Z,4.49
2023-03-17T07:11:26.320Z,4.18
2023-03-17T07:12:17.962Z,3.93
2023-03-17T07:13:10.185Z,4.11
2023-03-17T07:14:02.664Z,4.20
2023-03-17T07:14:54.202Z,3.77
2023-03-17T07:15:45.754Z,3.89
2023-03-17T07:16:37.722Z,4.10
2023-03-17T07:17:30.085Z,4.07
2023-03-17T07:18:21.594Z,4.21
2023-03-17T07:19:13.292Z,4.11
2023-03-17T07:20:06.407Z,4.22
2023-03-17T07:20:58.661Z,4.10
2023-03-17T07:21:50.233Z,4.03
2023-03-17T07:22:42.342Z,3.88
2023-03-17T07:23:33.887Z,4.18
2023-03-17T07:24:26.157Z,4.06
2023-03-17T07:25:17.741Z,3.85
2023-03-17T07:26:09.697Z,3.91
2023-03-17T07:27:01.294Z,4.03
2023-03-17T07:27:53.386Z,4.57
2023-03-17T07:28:44.967Z,4.37
2023-03-17T07:29:36.613Z,3.85
2023-03-17T07:30:28.613Z,4.57
2023-03-17T07:31:20.172Z,4.07
2023-03-17T07:32:11.813Z,3.74
2023-03-17T07:33:04.067Z,3.77
2023-03-17T07:33:57.455Z,4.20
2023-03-17T07:34:49.328Z,4.23
2023-03-17T07:35:41.577Z,4.19
2023-03-17T07:36:33.908Z,4.44
2023-03-17T07:37:25.568Z,4.27
2023-03-17T07:38:18.811Z,3.96
2023-03-17T07:39:12.055Z,3.83
2023-03-17T07:40:05.074Z,4.03
2023-03-17T07:40:56.673Z,3.95
2023-03-17T07:41:52.781Z,3.89
2023-03-17T07:42:45.358Z,3.77
2023-03-17T07:43:38.360Z,3.39
2023-03-17T07:44:30.419Z,3.69
2023-03-17T07:45:22.014Z,3.70
2023-03-17T07:46:14.420Z,3.83
2023-03-17T07:47:06.119Z,3.74
2023-03-17T07:47:57.578Z,4.14
2023-03-17T07:48:49.295Z,3.98
2023-03-17T07:49:42.319Z,3.61
2023-03-17T07:50:35.540Z,3.94
2023-03-17T07:51:28.064Z,4.24
2023-03-17T07:52:19.667Z,3.82
2023-03-17T07:53:11.342Z,3.99
2023-03-17T07:54:06.348Z,3.92
2023-03-17T07:54:58.370Z,3.60
2023-03-17T07:55:49.952Z,3.80
2023-03-17T07:56:42.380Z,3.48
2023-03-17T07:57:34.512Z,4.01
2023-03-17T07:58:26.625Z,3.80
2023-03-17T07:59:18.835Z,3.30
2023-03-17T08:00:13.394Z,3.54
2023-03-17T08:01:06.766Z,3.69
2023-03-17T08:02:00.215Z,3.79
2023-03-17T08:03:07.089Z,3.62
2023-03-17T08:04:01.668Z,3.95
2023-03-17T08:04:53.928Z,3.53
2023-03-17T08:05:45.613Z,3.71
2023-03-17T08:06:37.432Z,3.44
2023-03-17T08:07:31.526Z,3.96
2023-03-17T08:08:24.692Z,3.78
2023-03-17T08:09:16.353Z,3.67
2023-03-17T08:10:09.591Z,3.71
2023-03-17T08:11:03.867Z,3.44
2023-03-17T08:11:55.427Z,3.83
2023-03-17T08:12:51.727Z,3.93
2023-03-17T08:13:43.463Z,3.57
2023-03-17T08:14:34.979Z,3.47
2023-03-17T08:15:26.708Z,3.45
2023-03-17T08:16:18.402Z,3.74
2023-03-17T08:17:10.476Z,3.87
2023-03-17T08:18:02.378Z,3.84
2023-03-17T08:18:53.995Z,3.69
2023-03-17T08:19:45.623Z,3.53
2023-03-17T08:20:37.820Z,3.57
2023-03-17T08:21:30.872Z,3.42
2023-03-17T08:22:23.758Z,3.68
2023-03-17T08:23:15.481Z,3.79
2023-03-17T08:24:07.364Z,3.57
2023-03-17T08:24:58.869Z,3.51
2023-03-17T08:25:50.382Z,3.55
2023-03-17T08:26:42.589Z,3.46
2023-03-17T08:27:34.188Z,3.40
2023-03-17T08:28:27.099Z,3.68
2023-03-17T08:29:18.933Z,3.64
2023-03-17T08:30:12.544Z,3.51
2023-03-17T08:31:15.959Z,3.24
2023-03-17T08:32:08.115Z,3.89
2023-03-17T08:32:59.745Z,3.49
2023-03-17T08:33:54.266Z,3.19
2023-03-17T08:34:46.161Z,3.28
2023-03-17T08:35:41.462Z,3.59
2023-03-17T08:36:33.160Z,3.71
2023-03-17T08:37:24.700Z,3.35
2023-03-17T08:38:16.344Z,3.21
2023-03-17T08:39:10.373Z,3.58
2023-03-17T08:40:01.953Z,3.30
2023-03-17T08:40:53.497Z,3.31
2023-03-17T08:41:45.025Z,3.40
2023-03-17T08:42:37.605Z,3.60
2023-03-17T08:43:29.229Z,3.36
2023-03-17T08:44:21.768Z,3.47
2023-03-17T08:45:15.262Z,3.57
2023-03-17T08:46:20.286Z,3.23
2023-03-17T08:47:11.998Z,3.25
2023-03-17T08:48:04.162Z,3.48
2023-03-17T08:48:58.001Z,3.10
2023-03-17T08:49:50.301Z,3.26
2023-03-17T08:50:42.160Z,3.21
2023-03-17T08:51:36.861Z,3.26
2023-03-17T08:52:28.785Z,3.40
2023-03-17T08:53:20.651Z,3.37
2023-03-17T08:54:12.205Z,3.83
2023-03-17T08:55:03.850Z,3.69
2023-03-17T08:55:59.160Z,3.27
2023-03-17T08:56:51.161Z,3.47
2023-03-17T08:57:44.663Z,3.29
2023-03-17T08:58:39.827Z,3.29
2023-03-17T08:59:31.415Z,3.32
2023-03-17T09:00:23.274Z,3.33
2023-03-17T09:01:15.439Z,3.57
2023-03-17T09:02:11.189Z,3.54
2023-03-17T09:03:03.354Z,3.55
2023-03-17T09:03:55.798Z,3.70
2023-03-17T09:04:48.224Z,3.23
2023-03-17T09:05:39.712Z,3.47
2023-03-17T09:06:31.535Z,3.32
2023-03-17T09:07:23.041Z,3.10
2023-03-17T09:08:14.593Z,3.64
2023-03-17T09:09:06.770Z,3.07
2023-03-17T09:09:59.053Z,2.89
2023-03-17T09:10:51.837Z,3.28
2023-03-17T09:11:43.453Z,3.30
2023-03-17T09:12:35.319Z,3.31
2023-03-17T09:13:27.484Z,3.14
2023-03-17T09:14:19.088Z,3.28
2023-03-17T09:15:12.097Z,3.65
2023-03-17T09:16:03.964Z,3.85
2023-03-17T09:16:56.486Z,3.31
2023-03-17T09:17:48.013Z,3.29
2023-03-17T09:18:39.548Z,3.51
2023-03-17T09:19:31.110Z,3.44
2023-03-17T09:20:22.878Z,3.46
2023-03-17T09:21:16.062Z,3.41
2023-03-17T09:22:07.931Z,3.20
2023-03-17T09:23:00.666Z,3.23
2023-03-17T09:23:52.154Z,3.33
2023-03-17T09:24:43.731Z,3.39
2023-03-17T09:25:37.188Z,3.18
2023-03-17T09:26:28.840Z,3.04
2023-03-17T09:27:20.363Z,3.32
2023-03-17T09:28:12.712Z,3.30
2023-03-17T09:29:05.194Z,3.40
2023-03-17T09:29:56.669Z,3.08
2023-03-17T09:30:48.497Z,3.46
2023-03-17T09:31:41.509Z,3.32
2023-03-17T09:32:33.109Z,3.39
2023-03-17T09:33:24.978Z,3.24
2023-03-17T09:34:16.558Z,3.18
2023-03-17T09:35:08.714Z,3.47
2023-03-17T09:36:00.589Z,3.14
2023-03-17T09:36:55.934Z,3.27
2023-03-17T09:37:48.420Z,3.63
2023-03-17T09:38:40.772Z,3.10
2023-03-17T09:39:33.345Z,3.04
2023-03-17T09:40:32.891Z,3.27
2023-03-17T09:41:50.651Z,3.22
2023-03-17T09:42:56.473Z,3.10
2023-03-17T09:44:18.743Z,3.70
2023-03-17T09:45:26.450Z,3.25
2023-03-17T09:46:48.349Z,3.19
2023-03-17T09:47:48.657Z,3.48
2023-03-17T09:49:03.872Z,3.07
2023-03-17T09:49:59.883Z,3.23
2023-03-17T09:51:18.811Z,3.22
2023-03-17T09:52:18.558Z,3.39
2023-03-17T09:53:22.497Z,3.31
2023-03-17T09:54:31.256Z,3.08
2023-03-17T09:55:28.860Z,3.47
2023-03-17T09:56:21.012Z,3.51
2023-03-17T09:57:22.004Z,3.09
2023-03-17T09:58:14.154Z,3.46
2023-03-17T09:59:28.943Z,3.29
2023-03-17T10:00:29.043Z,3.34
2023-03-17T10:01:21.905Z,3.49
2023-03-17T10:02:22.067Z,3.40
2023-03-17T10:03:14.071Z,3.04
2023-03-17T10:04:06.359Z,3.22
2023-03-17T10:04:58.411Z,3.40
2023-03-17T10:05:50.177Z,3.47
2023-03-17T10:06:46.578Z,3.55
2023-03-17T10:07:50.407Z,3.33
2023-03-17T10:08:53.950Z,3.18
2023-03-17T10:10:01.208Z,3.12
2023-03-17T10:11:18.720Z,3.05
2023-03-17T10:12:29.194Z,3.39
2023-03-17T10:13:23.335Z,3.34
2023-03-17T10:14:49.011Z,3.24
2023-03-17T10:15:51.654Z,3.42
2023-03-17T10:16:54.553Z,3.16
2023-03-17T10:17:47.262Z,3.45
2023-03-17T10:18:48.460Z,2.83
2023-03-17T10:19:43.231Z,3.40
2023-03-17T10:20:46.699Z,3.19
2023-03-17T10:21:50.064Z,3.42
2023-03-17T10:23:02.148Z,3.42
2023-03-17T10:23:57.349Z,3.21
2023-03-17T10:25:01.220Z,3.28
2023-03-17T10:26:00.837Z,3.19
2023-03-17T10:26:57.889Z,3.17
2023-03-17T10:28:11.408Z,3.13
2023-03-17T10:29:04.322Z,2.77
2023-03-17T10:29:56.965Z,3.33
2023-03-17T10:30:48.640Z,3.18
2023-03-17T10:31:40.655Z,3.15
2023-03-17T10:32:38.981Z,3.21
2023-03-17T10:33:30.964Z,3.10
2023-03-17T10:34:26.681Z,3.30
2023-03-17T10:35:19.108Z,3.55
2023-03-17T10:36:15.771Z,3.40
2023-03-17T10:37:13.301Z,3.45
2023-03-17T10:38:24.469Z,3.48
2023-03-17T10:39:21.854Z,3.42
2023-03-17T10:40:25.349Z,3.24
2023-03-17T10:41:16.821Z,3.18
2023-03-17T10:42:23.730Z,3.42
2023-03-17T10:43:22.043Z,3.44
2023-03-17T10:44:28.196Z,3.36
2023-03-17T10:45:32.386Z,3.43
2023-03-17T10:46:26.403Z,3.17
2023-03-17T10:47:26.143Z,3.43
2023-03-17T10:48:18.932Z,3.46
2023-03-17T10:49:17.254Z,3.31
2023-03-17T10:50:14.594Z,3.54
2023-03-17T10:51:11.016Z,3.35
2023-03-17T10:52:08.136Z,3.29
2023-03-17T10:53:30.624Z,3.29
2023-03-17T10:54:25.278Z,3.41
2023-03-17T10:55:21.317Z,3.14
2023-03-17T10:56:24.970Z,3.17
2023-03-17T10:57:18.341Z,3.06
2023-03-17T10:58:09.846Z,3.23
2023-03-17T10:59:08.025Z,2.96
2023-03-17T11:00:02.079Z,3.41
2023-03-17T11:01:02.752Z,3.38
2023-03-17T11:02:05.613Z,3.21
2023-03-17T11:02:59.775Z,3.45
2023-03-17T11:03:51.511Z,3.35
2023-03-17T11:04:43.277Z,2.72
2023-03-17T11:05:34.807Z,3.25
2023-03-17T11:06:39.130Z,3.14
2023-03-17T11:07:39.830Z,3.39
2023-03-17T11:08:39.099Z,3.42
2023-03-17T11:09:35.303Z,3.15
2023-03-17T11:10:27.840Z,2.97
2023-03-17T11:11:29.641Z,3.31
2023-03-17T11:12:26.374Z,3.09
2023-03-17T11:13:17.971Z,2.95
2023-03-17T11:14:15.396Z,3.33
2023-03-17T11:15:14.050Z,3.06
2023-03-17T11:16:24.000Z,3.10
2023-03-17T11:17:39.737Z,2.89
2023-03-17T11:18:37.301Z,3.12
2023-03-17T11:20:04.803Z,3.10
2023-03-17T11:21:09.601Z,3.11
2023-03-17T11:22:30.509Z,3.24
2023-03-17T11:23:53.816Z,2.88
2023-03-17T11:24:59.196Z,2.98
2023-03-17T11:26:08.331Z,2.88
2023-03-17T11:27:20.625Z,2.66
2023-03-17T11:28:20.552Z,2.69
2023-03-17T11:30:01.462Z,3.25
2023-03-17T11:31:13.110Z,2.84
2023-03-17T11:32:46.223Z,2.45
2023-03-17T11:34:04.262Z,3.30
2023-03-17T11:35:12.665Z,2.82
2023-03-17T11:36:33.543Z,2.68
2023-03-17T11:37:51.947Z,2.76
2023-03-17T11:38:58.240Z,3.06
2023-03-17T11:40:19.340Z,2.78
2023-03-17T11:42:07.257Z,2.81
2023-03-17T11:43:34.176Z,2.99
2023-03-17T11:44:50.753Z,2.68
2023-03-17T11:45:50.635Z,3.03
2023-03-17T11:47:17.527Z,2.74
2023-03-17T11:48:27.692Z,2.58
2023-03-17T11:49:34.510Z,2.82
2023-03-17T11:50:47.603Z,2.96
2023-03-17T11:51:49.183Z,2.86
2023-03-17T11:52:59.669Z,3.03
2023-03-17T11:54:02.921Z,2.93
2023-03-17T11:55:23.672Z,2.72
2023-03-17T11:56:44.692Z,2.76
2023-03-17T11:57:48.079Z,2.74
2023-03-17T11:58:44.070Z,2.54
2023-03-17T11:59:54.526Z,2.73
2023-03-17T12:00:54.499Z,2.76
2023-03-17T12:02:33.845Z,2.55
2023-03-17T12:03:43.214Z,2.69
2023-03-17T12:04:43.313Z,2.75
2023-03-17T12:05:37.235Z,3.23
2023-03-17T12:06:33.992Z,2.66
2023-03-17T12:07:32.215Z,2.61
2023-03-17T12:08:47.285Z,2.53
2023-03-17T12:10:04.715Z,2.66
2023-03-17T12:11:00.989Z,2.45
2023-03-17T12:11:58.708Z,2.72
2023-03-17T12:12:59.099Z,2.82